Time;durP1;ratioP1;P1;durP2;ratioP2;P2;SDS_P1;SDS_P2;PMS_P1;PMS_P2;Temp;Humidity;BMP_temperature;BMP_pressure;BME280_temperature;BME280_humidity;BME280_pressure;Samples;Min_cycle;Max_cycle;Signal;HPM_P1;HPM_P2
2022/03/29 00:00:06;;;;;;;11.10;7.63;;;;;;;;;;5111526;28;20256;-77
2022/03/29 00:02:35;;;;;;;11.10;7.63;;;;;;;;;;5111199;28;20304;-77
2022/03/29 00:05:04;;;;;;;11.67;8.17;;;;;;;;;;5112464;28;20280;-78
2022/03/29 00:07:33;;;;;;;10.20;7.97;;;;;;;;;;5114876;28;20298;-77
2022/03/29 00:10:04;;;;;;;9.07;7.43;;;;;;;;;;5106570;28;20209;-77
2022/03/29 00:12:35;;;;;;;9.93;7.87;;;;;;;;;;5111722;28;20255;-78
2022/03/29 00:15:03;;;;;;;10.03;7.70;;;;;;;;;;5113931;28;20232;-76
2022/03/29 00:17:31;;;;;;;12.67;7.97;;;;;;;;;;5106198;28;20200;-77
2022/03/29 00:19:59;;;;;;;10.00;8.30;;;;;;;;;;5104477;28;20232;-77
2022/03/29 00:22:27;;;;;;;10.57;7.90;;;;;;;;;;5111566;28;20232;-77
2022/03/29 00:24:56;;;;;;;9.70;7.33;;;;;;;;;;5113511;28;20198;-77
2022/03/29 00:27:23;;;;;;;10.23;8.17;;;;;;;;;;5106052;28;20232;-77
2022/03/29 00:29:53;;;;;;;9.40;7.63;;;;;;;;;;5114543;28;20727;-77
2022/03/29 00:32:21;;;;;;;10.83;8.27;;;;;;;;;;5113253;28;20211;-77
2022/03/29 00:34:49;;;;;;;13.00;7.50;;;;;;;;;;5114937;28;20235;-77
2022/03/29 00:37:17;;;;;;;10.73;8.03;;;;;;;;;;5105072;28;20256;-77
2022/03/29 00:39:45;;;;;;;11.10;8.20;;;;;;;;;;5110919;28;20676;-78
2022/03/29 00:42:13;;;;;;;11.47;7.97;;;;;;;;;;5113946;28;20240;-77
2022/03/29 00:44:41;;;;;;;11.33;7.87;;;;;;;;;;5110659;28;20288;-77
2022/03/29 00:47:10;;;;;;;9.93;7.67;;;;;;;;;;5110575;28;20252;-77
2022/03/29 00:49:39;;;;;;;10.43;8.07;;;;;;;;;;5113929;28;20236;-78
2022/03/29 00:52:07;;;;;;;9.83;8.10;;;;;;;;;;5114202;28;20283;-77
2022/03/29 00:54:36;;;;;;;9.73;7.40;;;;;;;;;;5103454;28;20241;-77
2022/03/29 00:57:05;;;;;;;9.70;7.87;;;;;;;;;;5117288;28;20387;-77
2022/03/29 00:59:33;;;;;;;10.17;7.73;;;;;;;;;;5107389;28;20292;-77
2022/03/29 01:02:01;;;;;;;13.57;7.97;;;;;;;;;;5103077;28;20284;-77
2022/03/29 01:04:31;;;;;;;14.23;8.93;;;;;;;;;;5112485;28;20208;-77
2022/03/29 01:06:59;;;;;;;10.83;7.83;;;;;;;;;;5102449;28;20253;-77
2022/03/29 01:09:28;;;;;;;12.03;8.50;;;;;;;;;;5102299;28;20206;-77
2022/03/29 01:11:56;;;;;;;12.27;9.10;;;;;;;;;;5110161;28;20221;-77
2022/03/29 01:14:25;;;;;;;10.73;8.27;;;;;;;;;;5110893;28;20759;-77
2022/03/29 01:19:41;;;;;;;16.10;9.20;;;;;;;;;;5110726;28;20260;-75
2022/03/29 01:22:11;;;;;;;10.93;8.50;;;;;;;;;;5107923;28;20247;-77
2022/03/29 01:24:42;;;;;;;13.00;8.73;;;;;;;;;;5113824;28;20201;-77
2022/03/29 01:27:10;;;;;;;15.90;9.07;;;;;;;;;;5108703;28;20312;-77
2022/03/29 01:29:39;;;;;;;13.90;9.30;;;;;;;;;;5103048;28;20232;-78
2022/03/29 01:32:08;;;;;;;14.03;9.07;;;;;;;;;;5109825;28;20304;-78
2022/03/29 01:34:37;;;;;;;16.40;8.57;;;;;;;;;;5113265;28;20288;-78
2022/03/29 01:37:05;;;;;;;12.43;8.50;;;;;;;;;;5108431;28;20304;-77
2022/03/29 01:39:35;;;;;;;13.63;9.03;;;;;;;;;;5101733;28;20728;-77
2022/03/29 01:42:04;;;;;;;15.23;9.60;;;;;;;;;;5109985;28;20240;-76
2022/03/29 01:44:32;;;;;;;13.47;8.40;;;;;;;;;;5113035;28;20197;-76
2022/03/29 01:47:00;;;;;;;11.97;8.77;;;;;;;;;;5105475;28;20731;-76
2022/03/29 01:49:28;;;;;;;12.23;8.93;;;;;;;;;;5112458;28;20308;-76
2022/03/29 01:51:56;;;;;;;12.80;8.63;;;;;;;;;;5101774;28;20261;-77
2022/03/29 01:54:25;;;;;;;14.73;9.30;;;;;;;;;;5111945;28;20212;-78
2022/03/29 01:56:54;;;;;;;15.00;9.30;;;;;;;;;;5112660;28;20252;-76
2022/03/29 01:59:22;;;;;;;15.20;8.87;;;;;;;;;;5112678;28;20304;-78
2022/03/29 02:01:51;;;;;;;13.17;10.13;;;;;;;;;;5110806;28;20228;-78
2022/03/29 02:04:19;;;;;;;12.67;9.13;;;;;;;;;;5110107;28;20201;-76
2022/03/29 02:06:47;;;;;;;16.10;9.63;;;;;;;;;;5112726;28;20244;-76
2022/03/29 02:09:15;;;;;;;12.67;9.13;;;;;;;;;;5111490;28;20672;-76
2022/03/29 02:11:43;;;;;;;12.83;9.17;;;;;;;;;;5101647;28;20204;-76
2022/03/29 02:14:13;;;;;;;13.77;8.83;;;;;;;;;;5112850;28;20226;-78
2022/03/29 02:16:40;;;;;;;11.70;8.70;;;;;;;;;;5112522;28;20303;-77
2022/03/29 02:19:09;;;;;;;15.37;9.63;;;;;;;;;;5113094;28;20189;-78
2022/03/29 02:21:37;;;;;;;14.77;8.47;;;;;;;;;;5104764;28;20202;-78
2022/03/29 02:24:05;;;;;;;14.13;9.70;;;;;;;;;;5100900;28;20257;-78
2022/03/29 02:26:33;;;;;;;12.10;9.10;;;;;;;;;;5100970;28;20645;-78
2022/03/29 02:29:01;;;;;;;13.23;9.43;;;;;;;;;;5108930;28;22062;-77
2022/03/29 02:31:30;;;;;;;15.70;9.30;;;;;;;;;;5110712;28;20229;-78
2022/03/29 02:33:58;;;;;;;13.67;9.03;;;;;;;;;;5111862;28;20727;-78
2022/03/29 02:36:26;;;;;;;13.93;9.73;;;;;;;;;;5112146;28;20759;-77
2022/03/29 02:38:54;;;;;;;14.73;8.93;;;;;;;;;;5110632;28;20272;-77
2022/03/29 02:41:22;;;;;;;13.80;9.33;;;;;;;;;;5109351;28;20740;-78
2022/03/29 02:43:50;;;;;;;14.97;9.50;;;;;;;;;;5110213;28;20276;-78
2022/03/29 02:46:19;;;;;;;15.37;10.17;;;;;;;;;;5106642;28;20221;-78
2022/03/29 02:48:48;;;;;;;14.07;9.23;;;;;;;;;;5112040;28;20267;-77
2022/03/29 02:51:17;;;;;;;19.13;9.73;;;;;;;;;;5103983;28;20229;-78
2022/03/29 02:53:45;;;;;;;14.10;9.33;;;;;;;;;;5108447;28;20239;-78
2022/03/29 02:56:13;;;;;;;13.10;9.50;;;;;;;;;;5111937;28;20289;-78
2022/03/29 02:58:41;;;;;;;13.33;9.33;;;;;;;;;;5112189;28;20756;-78
2022/03/29 03:01:09;;;;;;;13.63;9.40;;;;;;;;;;5108846;28;20728;-78
2022/03/29 03:03:37;;;;;;;13.63;8.30;;;;;;;;;;5114718;28;20212;-78
2022/03/29 03:06:07;;;;;;;17.27;9.87;;;;;;;;;;5118110;28;20263;-77
2022/03/29 03:08:35;;;;;;;16.27;10.30;;;;;;;;;;5117621;28;20247;-77
2022/03/29 03:11:03;;;;;;;16.27;9.90;;;;;;;;;;5117616;28;20236;-75
2022/03/29 03:13:35;;;;;;;17.37;9.80;;;;;;;;;;5112753;28;20202;-77
2022/03/29 03:16:03;;;;;;;16.60;10.40;;;;;;;;;;5110788;28;20699;-76
2022/03/29 03:18:32;;;;;;;15.50;10.63;;;;;;;;;;5097935;28;20194;-77
2022/03/29 03:21:00;;;;;;;14.13;10.03;;;;;;;;;;5109252;28;20228;-77
2022/03/29 03:23:30;;;;;;;17.40;11.13;;;;;;;;;;5107874;28;20228;-76
2022/03/29 03:25:58;;;;;;;18.70;10.60;;;;;;;;;;5115218;28;20222;-77
2022/03/29 03:28:26;;;;;;;14.80;10.43;;;;;;;;;;5116321;28;20309;-76
2022/03/29 03:30:54;;;;;;;17.47;10.00;;;;;;;;;;5114739;28;20218;-77
2022/03/29 03:33:22;;;;;;;15.23;10.40;;;;;;;;;;5113242;28;20285;-76
2022/03/29 03:35:50;;;;;;;22.57;10.73;;;;;;;;;;5114937;28;20228;-75
2022/03/29 03:38:18;;;;;;;21.20;11.10;;;;;;;;;;5111761;28;20706;-76
2022/03/29 03:40:47;;;;;;;18.93;10.40;;;;;;;;;;5104962;28;20271;-76
2022/03/29 03:43:15;;;;;;;17.43;10.93;;;;;;;;;;5115692;28;20239;-77
2022/03/29 03:45:43;;;;;;;20.53;11.40;;;;;;;;;;5115132;28;20658;-77
2022/03/29 03:48:11;;;;;;;22.23;11.90;;;;;;;;;;5106295;28;20201;-77
2022/03/29 03:50:39;;;;;;;18.03;11.43;;;;;;;;;;5103651;28;20657;-75
2022/03/29 03:53:07;;;;;;;17.23;11.40;;;;;;;;;;5107867;27;20636;-75
2022/03/29 03:55:35;;;;;;;15.50;10.37;;;;;;;;;;5115644;28;20259;-76
2022/03/29 03:58:05;;;;;;;19.27;10.67;;;;;;;;;;5115609;28;20284;-75
2022/03/29 04:00:33;;;;;;;15.80;11.10;;;;;;;;;;5113856;28;20344;-75
2022/03/29 04:03:01;;;;;;;16.40;11.20;;;;;;;;;;5118596;28;20208;-75
2022/03/29 04:05:30;;;;;;;16.40;11.07;;;;;;;;;;5114134;28;20258;-75
2022/03/29 04:07:58;;;;;;;16.43;10.27;;;;;;;;;;5116643;28;20283;-76
2022/03/29 04:10:26;;;;;;;15.87;10.43;;;;;;;;;;5115894;28;20258;-75
2022/03/29 04:12:54;;;;;;;17.13;10.87;;;;;;;;;;5119085;28;20200;-76
2022/03/29 04:15:23;;;;;;;23.53;11.93;;;;;;;;;;5117291;28;20284;-75
2022/03/29 04:17:51;;;;;;;18.67;11.17;;;;;;;;;;5116970;28;20232;-76
2022/03/29 04:20:19;;;;;;;17.97;11.23;;;;;;;;;;5118754;28;20251;-76
2022/03/29 04:22:47;;;;;;;19.93;11.13;;;;;;;;;;5110623;28;20254;-75
2022/03/29 04:25:16;;;;;;;17.70;10.67;;;;;;;;;;5113551;28;20205;-76
2022/03/29 04:27:44;;;;;;;16.73;10.70;;;;;;;;;;5110899;28;20756;-76
2022/03/29 04:30:12;;;;;;;18.13;11.23;;;;;;;;;;5103280;28;20289;-76
2022/03/29 04:32:42;;;;;;;17.60;10.70;;;;;;;;;;5112748;28;20262;-75
2022/03/29 04:35:10;;;;;;;16.43;10.40;;;;;;;;;;5106346;28;20233;-76
2022/03/29 04:37:44;;;;;;;19.83;11.40;;;;;;;;;;5103331;28;20202;-76
2022/03/29 04:40:12;;;;;;;17.47;11.47;;;;;;;;;;5112194;28;20243;-75
2022/03/29 04:42:44;;;;;;;14.87;11.57;;;;;;;;;;5113937;28;20235;-76
2022/03/29 04:45:12;;;;;;;17.60;10.33;;;;;;;;;;5116938;28;20834;-75
2022/03/29 04:47:42;;;;;;;18.17;9.90;;;;;;;;;;5115073;28;20239;-76
2022/03/29 04:50:10;;;;;;;17.77;10.80;;;;;;;;;;5117619;28;20303;-76
2022/03/29 04:52:39;;;;;;;20.33;10.77;;;;;;;;;;5114176;28;20228;-75
2022/03/29 04:55:08;;;;;;;21.33;11.20;;;;;;;;;;5114249;28;20280;-75
2022/03/29 04:57:36;;;;;;;20.53;11.23;;;;;;;;;;5117308;28;20257;-77
2022/03/29 05:00:04;;;;;;;17.97;10.53;;;;;;;;;;5115431;28;20780;-75
2022/03/29 05:02:32;;;;;;;17.90;11.20;;;;;;;;;;5117457;28;20610;-76
2022/03/29 05:05:02;;;;;;;18.47;10.77;;;;;;;;;;5118183;28;20201;-75
2022/03/29 05:07:33;;;;;;;17.70;11.13;;;;;;;;;;5116343;28;20204;-75
2022/03/29 05:10:02;;;;;;;19.33;10.53;;;;;;;;;;5113604;28;20256;-76
2022/03/29 05:12:30;;;;;;;19.03;10.93;;;;;;;;;;5114604;28;20240;-75
2022/03/29 05:14:59;;;;;;;18.30;11.40;;;;;;;;;;5118381;28;20236;-75
2022/03/29 05:17:30;;;;;;;20.47;10.60;;;;;;;;;;5116491;28;20288;-77
2022/03/29 05:20:02;;;;;;;16.93;11.70;;;;;;;;;;5116223;28;20205;-79
2022/03/29 05:22:30;;;;;;;20.60;11.17;;;;;;;;;;5113106;28;20204;-81
2022/03/29 05:24:59;;;;;;;20.23;11.47;;;;;;;;;;5114111;28;20228;-80
2022/03/29 05:27:27;;;;;;;15.97;11.10;;;;;;;;;;5115410;28;20196;-80
2022/03/29 05:29:55;;;;;;;20.10;11.33;;;;;;;;;;5113685;28;20248;-80
2022/03/29 05:32:23;;;;;;;18.97;11.43;;;;;;;;;;5115222;28;20237;-79
2022/03/29 05:34:51;;;;;;;18.40;10.93;;;;;;;;;;5116978;28;20193;-79
2022/03/29 05:37:20;;;;;;;18.23;10.53;;;;;;;;;;5116082;28;20303;-80
2022/03/29 05:39:48;;;;;;;17.20;11.23;;;;;;;;;;5113642;28;20475;-80
2022/03/29 05:42:16;;;;;;;19.67;11.23;;;;;;;;;;5114827;28;20220;-79
2022/03/29 05:44:44;;;;;;;19.73;11.03;;;;;;;;;;5115109;28;20630;-79
2022/03/29 05:49:58;;;;;;;17.83;10.60;;;;;;;;;;5113641;28;20259;-81
2022/03/29 05:52:28;;;;;;;20.90;11.43;;;;;;;;;;5115240;28;20232;-81
2022/03/29 05:55:00;;;;;;;18.73;11.03;;;;;;;;;;5113255;28;20640;-80
2022/03/29 05:57:28;;;;;;;18.67;10.80;;;;;;;;;;5116943;28;20205;-81
2022/03/29 05:59:56;;;;;;;18.13;12.63;;;;;;;;;;5114277;28;20599;-81
2022/03/29 06:02:25;;;;;;;17.20;11.20;;;;;;;;;;5114911;28;20247;-82
2022/03/29 06:04:54;;;;;;;20.83;12.03;;;;;;;;;;5108563;28;20200;-80
2022/03/29 06:07:22;;;;;;;15.43;10.73;;;;;;;;;;5115287;28;20200;-81
2022/03/29 06:09:51;;;;;;;21.43;11.90;;;;;;;;;;5111709;28;20245;-80
2022/03/29 06:12:21;;;;;;;18.40;11.67;;;;;;;;;;5115048;28;20229;-81
2022/03/29 06:14:49;;;;;;;17.87;10.93;;;;;;;;;;5115383;28;20325;-80
2022/03/29 06:17:17;;;;;;;21.10;11.03;;;;;;;;;;5114751;28;20751;-80
2022/03/29 06:19:45;;;;;;;17.00;10.33;;;;;;;;;;5113960;28;20224;-81
2022/03/29 06:22:13;;;;;;;18.40;10.87;;;;;;;;;;5114403;28;20284;-78
2022/03/29 06:24:41;;;;;;;18.23;11.70;;;;;;;;;;5114572;28;20205;-78
2022/03/29 06:27:11;;;;;;;18.23;10.87;;;;;;;;;;5114158;28;20663;-77
2022/03/29 06:29:39;;;;;;;15.70;10.67;;;;;;;;;;5115471;28;20235;-77
2022/03/29 06:32:07;;;;;;;17.63;11.47;;;;;;;;;;5111419;28;20233;-76
2022/03/29 06:34:35;;;;;;;15.60;10.57;;;;;;;;;;5107291;28;20240;-75
2022/03/29 06:37:03;;;;;;;22.70;11.23;;;;;;;;;;5114913;28;20587;-75
2022/03/29 06:39:31;;;;;;;21.10;10.73;;;;;;;;;;5111773;28;20288;-75
2022/03/29 06:42:00;;;;;;;20.80;11.93;;;;;;;;;;5109571;28;20225;-74
2022/03/29 06:44:33;;;;;;;21.77;12.40;;;;;;;;;;5117519;28;20201;-75
2022/03/29 06:47:01;;;;;;;18.87;11.37;;;;;;;;;;5109226;28;20636;-75
2022/03/29 06:49:30;;;;;;;18.83;11.20;;;;;;;;;;5111138;28;20301;-75
2022/03/29 06:51:58;;;;;;;22.30;12.67;;;;;;;;;;5101869;28;20359;-76
2022/03/29 06:54:26;;;;;;;20.20;11.60;;;;;;;;;;5107224;28;20224;-77
2022/03/29 06:56:54;;;;;;;20.70;11.40;;;;;;;;;;5111029;28;20213;-76
2022/03/29 06:59:22;;;;;;;18.67;11.20;;;;;;;;;;5109705;28;20255;-77
2022/03/29 07:01:52;;;;;;;26.40;15.10;;;;;;;;;;5115594;28;20220;-76
2022/03/29 07:04:20;;;;;;;16.33;11.13;;;;;;;;;;5115881;28;20202;-77
2022/03/29 07:06:48;;;;;;;18.60;10.57;;;;;;;;;;5112415;28;20304;-71
2022/03/29 07:12:08;;;;;;;25.20;11.03;;;;;;;;;;5116931;28;20224;-70
2022/03/29 07:14:36;;;;;;;24.50;11.70;;;;;;;;;;5116361;28;20197;-71
2022/03/29 07:17:11;;;;;;;22.43;13.77;;;;;;;;;;5111264;28;20249;-69
2022/03/29 07:19:39;;;;;;;20.47;11.53;;;;;;;;;;5116285;28;20279;-69
2022/03/29 07:22:07;;;;;;;20.83;12.67;;;;;;;;;;5107495;27;20280;-68
2022/03/29 07:24:35;;;;;;;20.30;10.27;;;;;;;;;;5127626;27;20196;-69
2022/03/29 07:27:03;;;;;;;23.47;12.07;;;;;;;;;;5109590;28;20284;-67
2022/03/29 07:29:33;;;;;;;25.17;11.70;;;;;;;;;;5111518;28;20219;-68
2022/03/29 07:32:01;;;;;;;21.50;11.83;;;;;;;;;;5107845;27;20313;-68
2022/03/29 07:34:35;;;;;;;20.27;11.33;;;;;;;;;;5110858;28;20236;-68
2022/03/29 07:37:03;;;;;;;22.43;12.60;;;;;;;;;;5108010;28;20221;-68
2022/03/29 07:39:31;;;;;;;17.17;11.67;;;;;;;;;;5118097;28;20228;-67
2022/03/29 07:42:00;;;;;;;18.97;11.50;;;;;;;;;;5117897;28;20208;-68
2022/03/29 07:44:28;;;;;;;20.47;10.80;;;;;;;;;;5115063;28;20197;-70
2022/03/29 07:47:05;;;;;;;22.10;11.57;;;;;;;;;;5102200;28;20312;-71
2022/03/29 07:49:34;;;;;;;23.60;11.67;;;;;;;;;;5112049;28;20287;-69
2022/03/29 07:52:22;;;;;;;17.83;11.67;;;;;;;;;;5110686;28;20615;-67
2022/03/29 07:54:51;;;;;;;17.83;10.93;;;;;;;;;;5119438;28;20201;-68
2022/03/29 07:57:19;;;;;;;15.27;9.93;;;;;;;;;;5120310;28;20229;-68
2022/03/29 08:02:51;;;;;;;18.00;10.50;;;;;;;;;;5119679;27;20231;-66
2022/03/29 08:05:21;;;;;;;20.53;11.30;;;;;;;;;;5116268;28;20248;-67
2022/03/29 08:07:49;;;;;;;21.13;11.00;;;;;;;;;;5115166;28;20237;-69
2022/03/29 08:10:17;;;;;;;17.47;10.37;;;;;;;;;;5108788;28;20204;-68
2022/03/29 08:12:46;;;;;;;16.53;9.67;;;;;;;;;;5120389;28;20208;-69
2022/03/29 08:15:14;;;;;;;15.27;9.17;;;;;;;;;;5120985;28;20261;-69
2022/03/29 08:17:42;;;;;;;15.03;10.00;;;;;;;;;;5111972;28;20236;-68
2022/03/29 08:20:11;;;;;;;15.67;9.00;;;;;;;;;;5120246;28;20237;-66
2022/03/29 08:22:44;;;;;;;16.93;10.17;;;;;;;;;;5113265;28;20219;-69
2022/03/29 08:25:13;;;;;;;22.57;8.60;;;;;;;;;;5113831;28;20204;-70
2022/03/29 08:27:41;;;;;;;13.43;8.80;;;;;;;;;;5111535;28;20636;-70
2022/03/29 08:30:10;;;;;;;13.27;8.47;;;;;;;;;;5113891;28;20213;-72
2022/03/29 08:32:38;;;;;;;11.40;8.23;;;;;;;;;;5110620;28;20257;-69
2022/03/29 08:35:07;;;;;;;12.07;7.93;;;;;;;;;;5117323;28;20209;-71
2022/03/29 08:37:36;;;;;;;13.43;7.37;;;;;;;;;;5116311;28;20275;-71
2022/03/29 08:40:06;;;;;;;11.27;6.90;;;;;;;;;;5119152;28;20236;-72
2022/03/29 08:42:34;;;;;;;14.40;6.80;;;;;;;;;;5116244;28;20228;-69
2022/03/29 08:45:06;;;;;;;14.27;7.07;;;;;;;;;;5114876;28;21249;-69
2022/03/29 08:47:34;;;;;;;12.23;6.37;;;;;;;;;;5118876;28;20224;-71
2022/03/29 08:50:03;;;;;;;19.07;6.80;;;;;;;;;;5115569;28;20304;-70
2022/03/29 08:52:31;;;;;;;11.47;7.03;;;;;;;;;;5118151;28;20312;-70
2022/03/29 08:55:03;;;;;;;9.13;6.40;;;;;;;;;;5117520;27;20583;-69
2022/03/29 08:57:32;;;;;;;11.10;6.50;;;;;;;;;;5118536;27;20235;-69
2022/03/29 09:00:02;;;;;;;10.03;6.13;;;;;;;;;;5113028;28;20320;-71
2022/03/29 09:02:46;;;;;;;14.23;5.83;;;;;;;;;;5118364;28;20193;-69
2022/03/29 09:05:16;;;;;;;14.13;6.30;;;;;;;;;;5114490;28;20201;-68
2022/03/29 09:07:48;;;;;;;9.57;5.87;;;;;;;;;;5117486;28;20204;-68
2022/03/29 09:10:17;;;;;;;10.93;6.07;;;;;;;;;;5118728;28;20268;-69
2022/03/29 09:12:47;;;;;;;15.00;6.07;;;;;;;;;;5119081;28;20316;-69
2022/03/29 09:15:15;;;;;;;17.73;7.13;;;;;;;;;;5114578;28;20629;-70
2022/03/29 09:17:45;;;;;;;20.77;6.50;;;;;;;;;;5118433;28;20604;-72
2022/03/29 09:20:13;;;;;;;9.10;5.57;;;;;;;;;;5118244;28;20208;-75
2022/03/29 09:22:43;;;;;;;13.77;5.90;;;;;;;;;;5118822;28;20256;-73
2022/03/29 09:25:13;;;;;;;13.83;6.23;;;;;;;;;;5118579;28;20204;-73
2022/03/29 09:28:05;;;;;;;10.80;5.23;;;;;;;;;;5117591;28;20627;-73
2022/03/29 09:30:38;;;;;;;13.77;5.50;;;;;;;;;;5108132;27;20201;-77
2022/03/29 09:33:08;;;;;;;9.40;5.37;;;;;;;;;;5119197;28;20239;-74
2022/03/29 09:35:51;;;;;;;10.10;5.17;;;;;;;;;;5118083;28;20764;-76
2022/03/29 09:38:24;;;;;;;18.67;4.90;;;;;;;;;;5100149;28;20688;-75
2022/03/29 09:40:52;;;;;;;10.80;5.50;;;;;;;;;;5100864;28;20237;-77
2022/03/29 09:43:21;;;;;;;13.77;6.10;;;;;;;;;;5113444;28;20284;-76
2022/03/29 09:45:51;;;;;;;16.90;8.00;;;;;;;;;;5117038;28;20228;-75
2022/03/29 09:48:33;;;;;;;12.47;4.83;;;;;;;;;;5115366;28;20558;-75
2022/03/29 09:51:18;;;;;;;14.90;5.10;;;;;;;;;;5116101;28;20236;-74
2022/03/29 09:53:48;;;;;;;11.80;4.67;;;;;;;;;;5102141;28;20247;-75
2022/03/29 09:56:19;;;;;;;9.10;5.30;;;;;;;;;;5109132;28;20248;-75
2022/03/29 09:59:08;;;;;;;16.03;4.53;;;;;;;;;;5110123;28;20722;-75
2022/03/29 10:01:48;;;;;;;8.10;4.33;;;;;;;;;;5117864;28;20671;-75
2022/03/29 10:04:17;;;;;;;14.27;5.13;;;;;;;;;;5116731;28;20236;-76
2022/03/29 10:06:45;;;;;;;12.50;4.57;;;;;;;;;;5117570;28;20224;-71
2022/03/29 10:09:30;;;;;;;14.10;4.77;;;;;;;;;;5103983;28;20237;-68
2022/03/29 10:12:03;;;;;;;16.77;4.87;;;;;;;;;;5113488;28;20221;-68
2022/03/29 10:14:32;;;;;;;15.53;4.93;;;;;;;;;;5114749;28;20201;-67
2022/03/29 10:17:02;;;;;;;13.73;4.80;;;;;;;;;;5117785;28;20221;-66
2022/03/29 10:19:30;;;;;;;17.40;4.57;;;;;;;;;;5117848;28;20228;-66
2022/03/29 10:21:58;;;;;;;11.83;4.73;;;;;;;;;;5118259;28;20284;-67
2022/03/29 10:24:28;;;;;;;10.77;4.50;;;;;;;;;;5106079;28;20284;-65
2022/03/29 10:26:57;;;;;;;7.90;4.20;;;;;;;;;;5105375;28;20221;-66
2022/03/29 10:29:25;;;;;;;9.37;4.73;;;;;;;;;;5108987;28;20618;-65
2022/03/29 10:31:55;;;;;;;12.00;4.67;;;;;;;;;;5108618;28;20270;-66
2022/03/29 10:34:25;;;;;;;12.67;4.80;;;;;;;;;;5116076;28;20660;-67
2022/03/29 10:37:14;;;;;;;14.63;4.43;;;;;;;;;;5117858;28;20229;-67
2022/03/29 10:39:44;;;;;;;15.67;4.73;;;;;;;;;;5112612;28;20204;-67
2022/03/29 10:42:31;;;;;;;11.70;4.07;;;;;;;;;;5117411;28;20220;-67
2022/03/29 10:45:05;;;;;;;12.87;4.03;;;;;;;;;;5112658;28;20235;-67
2022/03/29 10:48:05;;;;;;;7.87;4.13;;;;;;;;;;5116550;28;20200;-67
2022/03/29 10:50:55;;;;;;;7.77;4.37;;;;;;;;;;5114693;28;20227;-68
2022/03/29 10:53:23;;;;;;;17.43;4.20;;;;;;;;;;5112743;28;20291;-67
2022/03/29 10:56:06;;;;;;;13.17;5.43;;;;;;;;;;5113542;28;20256;-69
2022/03/29 10:58:34;;;;;;;15.20;4.40;;;;;;;;;;5105975;28;20283;-69
2022/03/29 11:01:14;;;;;;;11.73;4.57;;;;;;;;;;5117183;28;20684;-69
2022/03/29 11:03:58;;;;;;;9.57;4.27;;;;;;;;;;5117391;28;20196;-70
2022/03/29 11:06:29;;;;;;;11.83;5.13;;;;;;;;;;5117535;28;20227;-69
2022/03/29 11:09:03;;;;;;;9.87;3.63;;;;;;;;;;5112844;28;20201;-69
2022/03/29 11:11:39;;;;;;;14.70;6.40;;;;;;;;;;5116800;28;20261;-70
2022/03/29 11:14:26;;;;;;;13.87;4.60;;;;;;;;;;5111750;28;20631;-70
2022/03/29 11:16:54;;;;;;;12.33;4.73;;;;;;;;;;5111032;28;20224;-70
2022/03/29 11:19:37;;;;;;;17.33;5.20;;;;;;;;;;5117389;28;20229;-70
2022/03/29 11:22:20;;;;;;;8.47;3.63;;;;;;;;;;5117193;28;20613;-70
2022/03/29 11:24:51;;;;;;;13.73;3.83;;;;;;;;;;5110851;28;20230;-70
2022/03/29 11:27:22;;;;;;;12.70;4.20;;;;;;;;;;5117353;28;20224;-70
2022/03/29 11:29:50;;;;;;;14.93;4.40;;;;;;;;;;5101610;28;20198;-69
2022/03/29 11:32:18;;;;;;;19.17;4.60;;;;;;;;;;5115335;28;20204;-69
2022/03/29 11:34:47;;;;;;;15.60;4.23;;;;;;;;;;5117179;28;20258;-69
2022/03/29 11:37:28;;;;;;;15.07;4.37;;;;;;;;;;5117220;28;20281;-70
2022/03/29 11:39:58;;;;;;;20.07;4.73;;;;;;;;;;5115363;28;20686;-70
2022/03/29 11:42:41;;;;;;;14.80;4.50;;;;;;;;;;5115711;28;20200;-69
2022/03/29 11:45:10;;;;;;;14.10;3.20;;;;;;;;;;5107662;28;20204;-70
2022/03/29 11:47:39;;;;;;;13.30;4.27;;;;;;;;;;5116730;28;20208;-70
2022/03/29 11:50:07;;;;;;;11.30;4.03;;;;;;;;;;5108383;28;20214;-70
2022/03/29 11:52:36;;;;;;;10.13;4.43;;;;;;;;;;5120257;28;20213;-70
2022/03/29 11:55:17;;;;;;;8.43;4.30;;;;;;;;;;5120183;28;20236;-70
2022/03/29 11:57:45;;;;;;;14.30;3.80;;;;;;;;;;5119586;28;20279;-70
2022/03/29 12:00:22;;;;;;;14.67;4.53;;;;;;;;;;5118316;28;20277;-71
2022/03/29 12:02:50;;;;;;;13.27;4.30;;;;;;;;;;5115559;27;20201;-70
2022/03/29 12:05:22;;;;;;;13.13;3.60;;;;;;;;;;5112393;27;20252;-70
2022/03/29 12:07:56;;;;;;;9.13;3.60;;;;;;;;;;5113964;28;20204;-70
2022/03/29 12:10:29;;;;;;;15.03;3.93;;;;;;;;;;5120079;28;20605;-70
2022/03/29 12:12:57;;;;;;;13.90;4.23;;;;;;;;;;5119931;28;20594;-71
2022/03/29 12:15:26;;;;;;;15.00;4.23;;;;;;;;;;5120146;28;20633;-70
2022/03/29 12:18:40;;;;;;;10.30;3.53;;;;;;;;;;5119652;28;20205;-70
2022/03/29 12:20:45;;;;;;;9.87;3.80;;;;;;;;;;5108387;28;20201;-69
2022/03/29 12:23:17;;;;;;;11.83;3.93;;;;;;;;;;5106685;28;20215;-70
2022/03/29 12:25:48;;;;;;;13.83;3.73;;;;;;;;;;5114822;28;20267;-69
2022/03/29 12:28:17;;;;;;;11.10;3.47;;;;;;;;;;5117296;27;20295;-70
2022/03/29 12:30:45;;;;;;;13.00;4.27;;;;;;;;;;5119834;28;20204;-70
2022/03/29 12:33:13;;;;;;;14.10;3.87;;;;;;;;;;5119238;28;20228;-71
2022/03/29 12:35:42;;;;;;;24.87;4.07;;;;;;;;;;5117937;28;20292;-70
2022/03/29 12:38:11;;;;;;;9.77;4.20;;;;;;;;;;5112287;28;20209;-70
2022/03/29 12:40:39;;;;;;;13.10;3.47;;;;;;;;;;5119988;28;20726;-71
2022/03/29 12:43:10;;;;;;;16.60;3.70;;;;;;;;;;5120393;28;20213;-72
2022/03/29 12:45:42;;;;;;;8.70;3.27;;;;;;;;;;5120839;28;20232;-70
2022/03/29 12:48:11;;;;;;;15.90;4.20;;;;;;;;;;5119906;28;20213;-68
2022/03/29 12:50:39;;;;;;;13.33;4.87;;;;;;;;;;5117657;28;20200;-68
2022/03/29 12:53:08;;;;;;;13.00;4.10;;;;;;;;;;5119299;28;20229;-68
2022/03/29 12:55:38;;;;;;;15.70;3.83;;;;;;;;;;5113190;28;20560;-70
2022/03/29 12:58:06;;;;;;;8.50;3.50;;;;;;;;;;5118868;28;20197;-68
2022/03/29 13:00:41;;;;;;;15.97;3.67;;;;;;;;;;5119193;28;20723;-70
2022/03/29 13:03:10;;;;;;;17.67;4.17;;;;;;;;;;5106498;28;20204;-69
2022/03/29 13:06:03;;;;;;;19.03;3.97;;;;;;;;;;5116157;28;20228;-69
2022/03/29 13:08:31;;;;;;;9.47;3.23;;;;;;;;;;5117339;28;20201;-68
2022/03/29 13:11:15;;;;;;;12.27;3.53;;;;;;;;;;5118108;28;20292;-68
2022/03/29 13:13:45;;;;;;;9.37;3.20;;;;;;;;;;5115191;28;20259;-67
2022/03/29 13:16:22;;;;;;;9.23;4.13;;;;;;;;;;5116824;28;20310;-67
2022/03/29 13:18:51;;;;;;;19.37;3.70;;;;;;;;;;5115918;28;20208;-68
2022/03/29 13:21:22;;;;;;;12.27;3.87;;;;;;;;;;5119286;28;20201;-67
2022/03/29 13:24:07;;;;;;;13.97;3.87;;;;;;;;;;5118874;28;20613;-68
2022/03/29 13:26:35;;;;;;;11.77;3.50;;;;;;;;;;5118985;28;20225;-68
2022/03/29 13:29:07;;;;;;;13.60;3.73;;;;;;;;;;5111108;28;20703;-67
2022/03/29 13:31:37;;;;;;;9.03;3.00;;;;;;;;;;5118158;28;20250;-68
2022/03/29 13:34:08;;;;;;;10.87;4.00;;;;;;;;;;5117875;28;20235;-67
2022/03/29 13:36:36;;;;;;;10.17;4.87;;;;;;;;;;5110817;27;20270;-67
2022/03/29 13:39:06;;;;;;;11.67;3.60;;;;;;;;;;5105104;28;20205;-67
2022/03/29 13:41:54;;;;;;;14.37;5.00;;;;;;;;;;5114964;28;20205;-70
2022/03/29 13:44:22;;;;;;;13.87;4.37;;;;;;;;;;5111556;28;20220;-65
2022/03/29 13:46:52;;;;;;;20.17;5.33;;;;;;;;;;5112099;28;20253;-69
2022/03/29 13:49:25;;;;;;;14.07;3.37;;;;;;;;;;5116375;28;20223;-69
2022/03/29 13:51:54;;;;;;;14.83;4.10;;;;;;;;;;5113613;28;20736;-69
2022/03/29 13:54:23;;;;;;;13.27;3.57;;;;;;;;;;5114974;28;20666;-69
2022/03/29 13:56:51;;;;;;;13.27;4.07;;;;;;;;;;5118379;28;20224;-70
2022/03/29 13:59:25;;;;;;;13.33;3.93;;;;;;;;;;5114812;28;20225;-68
2022/03/29 14:01:56;;;;;;;15.43;4.87;;;;;;;;;;5104619;28;20277;-68
2022/03/29 14:04:25;;;;;;;17.00;5.10;;;;;;;;;;5107140;27;20242;-69
2022/03/29 14:06:53;;;;;;;14.13;4.00;;;;;;;;;;5115735;28;20213;-69
2022/03/29 14:09:21;;;;;;;11.83;3.93;;;;;;;;;;5117627;28;20192;-68
2022/03/29 14:11:49;;;;;;;8.20;4.10;;;;;;;;;;5117308;28;20648;-68
2022/03/29 14:14:17;;;;;;;14.47;3.77;;;;;;;;;;5113320;28;20256;-68
2022/03/29 14:16:45;;;;;;;12.10;3.90;;;;;;;;;;5117396;28;20228;-69
2022/03/29 14:19:15;;;;;;;12.03;3.77;;;;;;;;;;5116525;28;20280;-68
2022/03/29 14:21:43;;;;;;;16.27;4.20;;;;;;;;;;5117664;28;20236;-69
2022/03/29 14:24:13;;;;;;;12.13;3.97;;;;;;;;;;5117410;28;20197;-67
2022/03/29 14:26:41;;;;;;;12.73;4.17;;;;;;;;;;5117451;28;20221;-65
2022/03/29 14:29:11;;;;;;;8.10;4.03;;;;;;;;;;5116626;28;20205;-65
2022/03/29 14:31:42;;;;;;;16.83;4.73;;;;;;;;;;5117451;28;20564;-70
2022/03/29 14:34:12;;;;;;;7.57;3.20;;;;;;;;;;5117568;28;20565;-70
2022/03/29 14:36:42;;;;;;;12.33;4.00;;;;;;;;;;5111836;28;20875;-69
2022/03/29 14:39:15;;;;;;;16.20;4.63;;;;;;;;;;5100669;28;20235;-69
2022/03/29 14:41:45;;;;;;;18.73;4.87;;;;;;;;;;5104068;28;20257;-69
2022/03/29 14:44:15;;;;;;;19.33;5.10;;;;;;;;;;5117737;28;20287;-69
2022/03/29 14:46:45;;;;;;;18.33;5.33;;;;;;;;;;5117423;28;20239;-69
2022/03/29 14:49:13;;;;;;;34.07;6.73;;;;;;;;;;5116166;28;20204;-70
2022/03/29 14:51:43;;;;;;;19.13;6.03;;;;;;;;;;5117140;28;20204;-70
2022/03/29 14:54:11;;;;;;;18.90;4.77;;;;;;;;;;5111502;28;20205;-69